Terminal Aerodrome Forecast
Issued by NWS Amarillo, TX

Home | Current Version | Previous Version | Text Only | Print | Product List | Glossary On
Versions: 1 2 3 4 5 6 7 8 9 10 11 12 13 14 15 16 17 18 19 20 21 22 23 24 25 26 27 28 29 30
000
FTUS44 KAMA 220500
TAFAMA
TAF
KAMA 220523Z 2206/2306 28012KT P6SM BKN150
     FM220900 31014KT P6SM BKN100
     FM221600 34020KT P6SM BKN050=

USA.gov is the U.S. government's official web portal to all federal, state and local government web resources and services.